Time;durP1;ratioP1;P1;durP2;ratioP2;P2;SDS_P1;SDS_P2;PMS_P1;PMS_P2;Temp;Humidity;BMP_temperature;BMP_pressure;BME280_temperature;BME280_humidity;BME280_pressure;Samples;Min_cycle;Max_cycle;Signal;HPM_P1;HPM_P2
2021/12/29 00:02:25;;;;;;;67.00;25.63;;;1.90;99.90;;;;;;5093903;28;20395;-68
2021/12/29 00:04:51;;;;;;;64.30;25.63;;;1.90;99.90;;;;;;5094248;28;20031;-67
2021/12/29 00:07:17;;;;;;;61.40;25.52;;;1.90;99.90;;;;;;5093534;28;20035;-67
2021/12/29 00:09:43;;;;;;;72.78;26.98;;;1.90;99.90;;;;;;5094148;28;20034;-67
2021/12/29 00:12:10;;;;;;;65.60;27.77;;;1.90;99.90;;;;;;5094301;28;20024;-67
2021/12/29 00:14:36;;;;;;;63.00;26.52;;;1.90;99.90;;;;;;5093454;28;20032;-67
2021/12/29 00:17:03;;;;;;;65.78;27.23;;;1.90;99.90;;;;;;5093784;28;20534;-68
2021/12/29 00:19:29;;;;;;;72.07;29.15;;;1.90;99.90;;;;;;5093326;28;20024;-67
2021/12/29 00:21:55;;;;;;;67.97;27.27;;;1.90;99.90;;;;;;5094213;28;20493;-67
2021/12/29 00:24:21;;;;;;;71.13;27.60;;;1.90;99.90;;;;;;5093122;28;20426;-68
2021/12/29 00:26:47;;;;;;;78.43;28.70;;;1.90;99.90;;;;;;5093956;28;20093;-67
2021/12/29 00:29:14;;;;;;;67.13;26.17;;;1.90;99.90;;;;;;5093367;28;20437;-67
2021/12/29 00:31:40;;;;;;;69.43;28.65;;;1.90;99.90;;;;;;5094012;28;20107;-67
2021/12/29 00:34:06;;;;;;;70.22;26.35;;;1.90;99.90;;;;;;5093650;28;20115;-68
2021/12/29 00:36:33;;;;;;;69.38;28.42;;;1.90;99.90;;;;;;5093090;28;20409;-68
2021/12/29 00:38:58;;;;;;;58.45;25.92;;;1.90;99.90;;;;;;5093720;28;20066;-67
2021/12/29 00:41:25;;;;;;;62.03;27.15;;;1.90;99.90;;;;;;5092969;28;20353;-67
2021/12/29 00:43:50;;;;;;;63.95;27.13;;;1.90;99.90;;;;;;5093800;28;20064;-68
2021/12/29 00:46:17;;;;;;;65.65;28.17;;;1.90;99.90;;;;;;5093275;28;20076;-67
2021/12/29 00:48:45;;;;;;;58.53;27.15;;;1.90;99.90;;;;;;5093640;28;20089;-67
2021/12/29 00:51:11;;;;;;;64.05;28.08;;;1.90;99.90;;;;;;5093325;28;20024;-67
2021/12/29 00:53:38;;;;;;;73.95;29.40;;;2.00;99.90;;;;;;5092583;28;20089;-67
2021/12/29 00:56:04;;;;;;;87.38;28.67;;;2.00;99.90;;;;;;5093471;28;20085;-67
2021/12/29 00:58:30;;;;;;;66.95;27.80;;;1.90;99.90;;;;;;5074881;28;20032;-68
2021/12/29 01:00:57;;;;;;;73.65;30.35;;;1.90;99.90;;;;;;5093106;28;20112;-67
2021/12/29 01:03:23;;;;;;;75.32;30.23;;;2.00;99.90;;;;;;5092343;28;20035;-67
2021/12/29 01:05:49;;;;;;;74.20;27.70;;;2.00;99.90;;;;;;5093182;28;20418;-67
2021/12/29 01:08:15;;;;;;;64.75;27.85;;;2.00;99.90;;;;;;5093191;28;20137;-67
2021/12/29 01:10:42;;;;;;;70.20;29.25;;;2.00;99.90;;;;;;5092440;28;20020;-67
2021/12/29 01:13:10;;;;;;;77.20;30.48;;;2.00;99.90;;;;;;5093009;28;20038;-68
2021/12/29 01:18:43;;;;;;;67.40;28.52;;;2.00;99.90;;;;;;5030359;28;20033;-67
2021/12/29 01:21:10;;;;;;;65.13;27.00;;;2.00;99.90;;;;;;5078523;28;20076;-66
2021/12/29 01:23:36;;;;;;;63.35;27.52;;;2.00;99.90;;;;;;5092262;28;20024;-67
2021/12/29 01:26:02;;;;;;;78.20;29.50;;;2.00;99.90;;;;;;5073588;28;20036;-67
2021/12/29 01:28:28;;;;;;;103.72;28.15;;;2.00;99.90;;;;;;5092070;28;20384;-67
2021/12/29 01:30:54;;;;;;;64.35;26.80;;;2.00;99.90;;;;;;5074592;28;20056;-67
2021/12/29 01:33:20;;;;;;;77.18;27.85;;;2.00;99.90;;;;;;5092120;28;20059;-65
2021/12/29 01:35:46;;;;;;;67.60;28.00;;;2.00;99.90;;;;;;5092566;28;20028;-68
2021/12/29 01:38:12;;;;;;;67.80;26.65;;;2.00;99.90;;;;;;5092346;28;20034;-67
2021/12/29 01:40:40;;;;;;;69.43;28.88;;;2.00;99.90;;;;;;5092047;28;20097;-68
2021/12/29 01:43:08;;;;;;;77.65;28.98;;;2.00;99.90;;;;;;5092516;28;20097;-68
2021/12/29 01:45:34;;;;;;;80.72;28.40;;;2.00;99.90;;;;;;5091239;28;20040;-68
2021/12/29 01:48:00;;;;;;;90.75;31.80;;;2.00;99.90;;;;;;5092345;28;20028;-68
2021/12/29 01:50:27;;;;;;;81.97;30.05;;;2.00;99.90;;;;;;5091539;28;20047;-65
2021/12/29 01:53:21;;;;;;;105.70;30.17;;;2.00;99.90;;;;;;5092270;28;20059;-68
2021/12/29 01:55:47;;;;;;;92.53;32.60;;;2.00;99.90;;;;;;5051686;28;20136;-68
2021/12/29 01:58:13;;;;;;;147.52;33.15;;;2.00;99.90;;;;;;5052037;28;20100;-67
2021/12/29 02:00:41;;;;;;;97.22;31.85;;;2.00;99.90;;;;;;5051668;28;20029;-67
2021/12/29 02:03:08;;;;;;;74.75;30.05;;;2.00;99.90;;;;;;5051875;28;20525;-67
2021/12/29 02:05:34;;;;;;;79.53;29.83;;;2.00;99.90;;;;;;5051323;28;20078;-67
2021/12/29 02:08:00;;;;;;;78.65;30.02;;;2.00;99.90;;;;;;5052083;28;20041;-67
2021/12/29 02:10:31;;;;;;;85.60;29.52;;;2.00;99.90;;;;;;5051023;28;20116;-68
2021/12/29 02:12:59;;;;;;;86.57;31.65;;;2.00;99.90;;;;;;5051957;28;20115;-67
2021/12/29 02:15:24;;;;;;;88.03;30.88;;;2.00;99.90;;;;;;5050539;28;20033;-67
2021/12/29 02:17:50;;;;;;;82.38;30.55;;;2.10;99.90;;;;;;5051845;28;20036;-67
2021/12/29 02:20:20;;;;;;;79.97;30.50;;;2.10;99.90;;;;;;5051751;28;20032;-67
2021/12/29 02:22:52;;;;;;;83.00;31.15;;;2.10;99.90;;;;;;5051427;28;20512;-67
2021/12/29 02:27:53;;;;;;;86.10;31.17;;;2.10;99.90;;;;;;5051030;28;20112;-67
2021/12/29 02:30:26;;;;;;;87.90;31.05;;;2.10;99.90;;;;;;5051781;28;20489;-68
2021/12/29 02:32:57;;;;;;;102.28;30.15;;;2.10;99.90;;;;;;5051703;28;20067;-66
2021/12/29 02:35:24;;;;;;;104.88;30.63;;;2.10;99.90;;;;;;5051246;28;20182;-67
2021/12/29 02:37:50;;;;;;;83.70;32.42;;;2.10;99.90;;;;;;5051236;28;20462;-67
2021/12/29 02:40:16;;;;;;;92.15;32.22;;;2.00;99.90;;;;;;5051555;28;20068;-67
2021/12/29 02:42:43;;;;;;;87.72;32.88;;;2.00;99.90;;;;;;5049641;28;20115;-67
2021/12/29 02:45:14;;;;;;;85.47;32.00;;;2.00;99.90;;;;;;5051210;28;20454;-67
2021/12/29 02:47:40;;;;;;;79.97;32.22;;;2.00;99.90;;;;;;5050956;28;20246;-67
2021/12/29 02:50:06;;;;;;;84.35;31.95;;;2.00;99.90;;;;;;5051209;28;20509;-67
2021/12/29 02:52:32;;;;;;;84.97;31.90;;;2.00;99.90;;;;;;5049028;28;20501;-67
2021/12/29 02:54:58;;;;;;;75.90;29.63;;;2.10;99.90;;;;;;5078457;28;20055;-67
2021/12/29 02:57:24;;;;;;;77.05;28.88;;;2.10;99.90;;;;;;5091517;28;20099;-67
2021/12/29 02:59:49;;;;;;;103.22;30.60;;;2.10;99.90;;;;;;5091233;28;20051;-66
2021/12/29 03:02:15;;;;;;;81.80;30.05;;;2.10;99.90;;;;;;5091846;28;20095;-67
2021/12/29 03:04:41;;;;;;;98.68;30.45;;;2.10;99.90;;;;;;5090605;28;20054;-68
2021/12/29 03:07:07;;;;;;;158.38;30.10;;;2.10;99.90;;;;;;5073095;28;20086;-68
2021/12/29 03:09:32;;;;;;;122.10;30.65;;;2.10;99.90;;;;;;5072907;28;20085;-68
2021/12/29 03:11:58;;;;;;;149.48;31.02;;;2.10;99.90;;;;;;5073321;28;20035;-68
2021/12/29 03:14:25;;;;;;;128.57;30.98;;;2.00;99.90;;;;;;5091205;28;20430;-67
2021/12/29 03:16:52;;;;;;;116.28;30.75;;;2.00;99.90;;;;;;5090967;28;20032;-67
2021/12/29 03:19:18;;;;;;;154.77;30.85;;;2.00;99.90;;;;;;5091081;28;20337;-66
2021/12/29 03:21:47;;;;;;;139.02;30.67;;;2.00;99.90;;;;;;5090451;28;20059;-66
2021/12/29 03:24:15;;;;;;;130.35;30.83;;;2.00;99.90;;;;;;5091157;28;20024;-67
2021/12/29 03:26:41;;;;;;;163.05;31.77;;;2.00;99.90;;;;;;5092370;28;20398;-67
2021/12/29 03:29:07;;;;;;;133.63;30.52;;;2.00;99.90;;;;;;5094791;28;20028;-67
2021/12/29 03:31:37;;;;;;;158.50;31.55;;;2.00;99.90;;;;;;5094506;28;20063;-67
2021/12/29 03:34:03;;;;;;;143.82;32.70;;;2.00;99.90;;;;;;5094835;28;20078;-67
2021/12/29 03:36:29;;;;;;;118.07;29.73;;;1.90;99.90;;;;;;5094006;28;20059;-69
2021/12/29 03:38:55;;;;;;;96.93;27.00;;;1.90;99.90;;;;;;5094940;28;20455;-67
2021/12/29 03:41:23;;;;;;;66.60;24.77;;;1.90;99.90;;;;;;5094818;28;20048;-67
2021/12/29 03:43:49;;;;;;;65.60;24.83;;;1.90;99.90;;;;;;5094162;28;20042;-68
2021/12/29 03:46:16;;;;;;;47.78;22.67;;;1.90;99.90;;;;;;5094666;28;20028;-66
2021/12/29 03:48:44;;;;;;;48.85;21.30;;;1.90;99.90;;;;;;5094160;28;20031;-68
2021/12/29 03:51:11;;;;;;;42.70;20.25;;;1.90;99.90;;;;;;5094825;28;20028;-67
2021/12/29 03:53:37;;;;;;;42.83;19.77;;;1.90;99.90;;;;;;5075700;28;20040;-67
2021/12/29 03:56:03;;;;;;;43.17;21.45;;;1.90;99.90;;;;;;5094527;28;20047;-66
2021/12/29 03:58:30;;;;;;;38.38;19.42;;;1.90;99.90;;;;;;5094446;28;20081;-67
2021/12/29 04:01:04;;;;;;;35.33;19.38;;;1.90;99.90;;;;;;5094399;28;20024;-67
2021/12/29 04:03:30;;;;;;;38.05;19.88;;;1.90;99.90;;;;;;5093961;28;20020;-67
2021/12/29 04:05:56;;;;;;;38.38;18.20;;;1.90;99.90;;;;;;5094326;28;20449;-66
2021/12/29 04:08:22;;;;;;;37.47;18.30;;;1.90;99.90;;;;;;5094024;28;20020;-67
2021/12/29 04:10:48;;;;;;;35.30;18.23;;;2.00;99.90;;;;;;5093574;28;20472;-67
2021/12/29 04:13:14;;;;;;;34.95;18.35;;;1.90;99.90;;;;;;5094302;28;20024;-67
2021/12/29 04:15:40;;;;;;;35.15;17.20;;;2.00;99.90;;;;;;5075315;28;20097;-67
2021/12/29 04:18:15;;;;;;;35.83;17.75;;;2.00;99.90;;;;;;5094086;28;20039;-66
2021/12/29 04:21:01;;;;;;;32.80;17.98;;;2.00;99.90;;;;;;5093472;28;20070;-66
2021/12/29 04:23:35;;;;;;;39.10;18.38;;;1.90;99.90;;;;;;5079035;28;20404;-67
2021/12/29 04:26:03;;;;;;;31.27;17.48;;;1.90;99.90;;;;;;5093954;28;20082;-68
2021/12/29 04:28:29;;;;;;;33.28;17.40;;;1.90;99.90;;;;;;5093866;28;20073;-67
2021/12/29 04:31:07;;;;;;;34.85;18.30;;;2.00;99.90;;;;;;5093277;28;20025;-68
2021/12/29 04:33:33;;;;;;;35.05;18.50;;;2.00;99.90;;;;;;5093317;28;20119;-68
2021/12/29 04:35:59;;;;;;;35.92;19.10;;;2.00;99.90;;;;;;5093359;28;20028;-67
2021/12/29 04:38:25;;;;;;;35.15;18.23;;;1.90;99.90;;;;;;5093072;28;20024;-68
2021/12/29 04:40:55;;;;;;;34.30;17.77;;;1.90;99.90;;;;;;5093128;28;20016;-68
2021/12/29 04:43:22;;;;;;;33.70;18.13;;;1.90;99.90;;;;;;5093618;28;20062;-67
2021/12/29 04:45:48;;;;;;;33.78;18.02;;;1.90;99.90;;;;;;5092928;28;20107;-67
2021/12/29 04:48:15;;;;;;;35.03;18.75;;;1.90;99.90;;;;;;5093537;28;20120;-67
2021/12/29 04:50:50;;;;;;;31.02;18.00;;;2.00;99.90;;;;;;5092281;28;20031;-67
2021/12/29 04:53:17;;;;;;;33.38;18.02;;;2.00;99.90;;;;;;5093760;28;20028;-67
2021/12/29 04:55:45;;;;;;;35.30;18.38;;;2.00;99.90;;;;;;5092282;28;20040;-67
2021/12/29 04:58:12;;;;;;;37.35;18.58;;;2.00;99.90;;;;;;5093152;28;20468;-67
2021/12/29 05:00:38;;;;;;;34.88;17.25;;;2.00;99.90;;;;;;5092489;28;20503;-68
2021/12/29 05:03:05;;;;;;;36.85;18.70;;;2.00;99.90;;;;;;5093175;28;20028;-67
2021/12/29 05:10:41;;;;;;;32.78;17.73;;;2.00;99.90;;;;;;5089647;28;20089;-68
2021/12/29 05:13:07;;;;;;;32.92;19.23;;;2.00;99.90;;;;;;5092818;28;20032;-66
2021/12/29 05:15:33;;;;;;;33.60;18.85;;;2.00;99.90;;;;;;5092798;28;20035;-66
2021/12/29 05:18:01;;;;;;;34.15;18.17;;;2.00;99.90;;;;;;5092090;28;20098;-67
2021/12/29 05:20:28;;;;;;;31.83;18.42;;;2.00;99.90;;;;;;5092798;28;20039;-67
2021/12/29 05:22:54;;;;;;;37.50;20.30;;;2.00;99.90;;;;;;5092136;28;20032;-67
2021/12/29 05:25:20;;;;;;;36.05;19.58;;;2.00;99.90;;;;;;5092968;28;20028;-67
2021/12/29 05:27:46;;;;;;;35.05;20.25;;;2.00;99.90;;;;;;5092269;28;20111;-67
2021/12/29 05:30:12;;;;;;;38.30;19.75;;;2.10;99.90;;;;;;5092767;28;20027;-68
2021/12/29 05:32:38;;;;;;;36.78;19.35;;;2.00;99.90;;;;;;5092116;28;20031;-67
2021/12/29 05:35:04;;;;;;;34.00;18.33;;;2.10;99.90;;;;;;5092790;28;20021;-68
2021/12/29 05:37:30;;;;;;;35.30;19.63;;;2.10;99.90;;;;;;5074439;28;20111;-67
2021/12/29 05:39:55;;;;;;;37.55;20.13;;;2.10;99.90;;;;;;5091894;28;20499;-68
2021/12/29 05:42:21;;;;;;;33.60;18.98;;;2.10;99.90;;;;;;5091282;28;20020;-67
2021/12/29 05:44:47;;;;;;;36.28;19.30;;;2.10;99.90;;;;;;5067267;28;20035;-67
2021/12/29 05:47:12;;;;;;;39.30;20.23;;;2.10;99.90;;;;;;5091338;28;20024;-66
2021/12/29 05:49:38;;;;;;;38.42;20.35;;;2.10;99.90;;;;;;5090759;28;20024;-67
2021/12/29 05:52:04;;;;;;;35.38;18.67;;;2.10;99.90;;;;;;5072931;28;20496;-67
2021/12/29 05:54:32;;;;;;;37.03;19.67;;;2.10;99.90;;;;;;5091854;28;20126;-68
2021/12/29 05:56:58;;;;;;;37.40;19.83;;;2.10;99.90;;;;;;5091384;28;20351;-66
2021/12/29 05:59:24;;;;;;;35.55;19.92;;;2.10;99.90;;;;;;5091542;28;20434;-67
2021/12/29 06:01:50;;;;;;;36.50;19.80;;;2.20;99.90;;;;;;5090701;28;20024;-67
2021/12/29 06:04:16;;;;;;;34.47;19.90;;;2.10;99.90;;;;;;5091857;28;20024;-66
2021/12/29 06:06:42;;;;;;;34.20;19.35;;;2.20;99.90;;;;;;5091531;28;20105;-67
2021/12/29 06:09:07;;;;;;;41.00;21.15;;;2.20;99.90;;;;;;5091998;28;20055;-67
2021/12/29 06:11:33;;;;;;;39.10;21.48;;;2.20;99.90;;;;;;5092306;28;20021;-67
2021/12/29 06:13:59;;;;;;;38.75;20.65;;;2.20;99.90;;;;;;5091244;28;20028;-67
2021/12/29 06:16:25;;;;;;;40.90;20.88;;;2.20;99.90;;;;;;5091615;28;20357;-67
2021/12/29 06:18:51;;;;;;;36.78;20.77;;;2.20;99.90;;;;;;5090293;28;20089;-67
2021/12/29 06:21:17;;;;;;;43.60;21.75;;;2.20;99.90;;;;;;5091898;28;20059;-67
2021/12/29 06:23:47;;;;;;;41.75;21.92;;;2.20;99.90;;;;;;5090924;28;20542;-66
2021/12/29 06:26:13;;;;;;;43.47;22.90;;;2.20;99.90;;;;;;5091980;28;20024;-67
2021/12/29 06:28:40;;;;;;;37.42;21.73;;;2.20;99.90;;;;;;5077723;28;20024;-67
2021/12/29 06:31:06;;;;;;;34.95;22.05;;;2.20;99.90;;;;;;5070137;28;20029;-68
2021/12/29 06:33:33;;;;;;;37.90;21.45;;;2.30;99.90;;;;;;5089138;28;20024;-67
2021/12/29 06:35:58;;;;;;;39.30;21.15;;;2.30;99.90;;;;;;5091086;28;20020;-67
2021/12/29 06:38:24;;;;;;;37.03;20.58;;;2.30;99.90;;;;;;5091360;28;20035;-67
2021/12/29 06:40:50;;;;;;;34.78;20.40;;;2.30;99.90;;;;;;5072779;28;20028;-68
2021/12/29 06:43:16;;;;;;;41.15;20.83;;;2.40;99.90;;;;;;5091223;28;20487;-68
2021/12/29 06:45:42;;;;;;;35.00;20.67;;;2.30;99.90;;;;;;5072815;28;20121;-67
2021/12/29 06:48:08;;;;;;;40.50;21.65;;;2.30;99.90;;;;;;5091318;28;20024;-67
2021/12/29 06:50:34;;;;;;;40.90;22.02;;;2.30;99.90;;;;;;5091431;28;20025;-67
2021/12/29 06:53:00;;;;;;;38.67;20.63;;;2.30;99.90;;;;;;5091278;28;20028;-68
2021/12/29 06:55:25;;;;;;;39.95;20.90;;;2.40;99.90;;;;;;5092046;28;20178;-67
2021/12/29 06:57:51;;;;;;;37.30;21.00;;;2.30;99.90;;;;;;5090766;28;20028;-67
2021/12/29 07:00:17;;;;;;;36.90;20.80;;;2.30;99.90;;;;;;5091655;28;20426;-66
2021/12/29 07:02:43;;;;;;;35.80;20.98;;;2.30;99.90;;;;;;5094556;28;20036;-69
2021/12/29 07:05:09;;;;;;;38.95;21.08;;;2.40;99.90;;;;;;5095788;28;20054;-66
2021/12/29 07:07:35;;;;;;;39.15;22.05;;;2.40;99.90;;;;;;5095437;28;20024;-66
2021/12/29 07:10:01;;;;;;;34.90;20.45;;;2.30;99.90;;;;;;5094984;28;20078;-66
2021/12/29 07:12:27;;;;;;;39.28;21.55;;;2.40;99.90;;;;;;5095638;28;20060;-67
2021/12/29 07:14:53;;;;;;;36.10;21.23;;;2.40;99.90;;;;;;5094987;28;20452;-68
2021/12/29 07:17:19;;;;;;;39.47;22.25;;;2.40;99.90;;;;;;5095408;28;20028;-67
2021/12/29 07:19:45;;;;;;;38.67;21.55;;;2.40;99.90;;;;;;5094807;28;20457;-68
2021/12/29 07:22:11;;;;;;;41.10;21.20;;;2.40;99.90;;;;;;5095430;28;20028;-68
2021/12/29 07:24:37;;;;;;;39.97;20.40;;;2.40;99.90;;;;;;5095086;28;20028;-67
2021/12/29 07:27:03;;;;;;;41.22;20.52;;;2.50;99.90;;;;;;5076663;28;20056;-67
2021/12/29 07:29:29;;;;;;;43.35;22.25;;;2.40;99.90;;;;;;5095259;28;20032;-66
2021/12/29 07:31:57;;;;;;;37.38;21.15;;;2.50;99.90;;;;;;5094700;28;20034;-66
2021/12/29 07:34:24;;;;;;;40.42;21.50;;;2.50;99.90;;;;;;5095297;28;20081;-67
2021/12/29 07:36:50;;;;;;;42.35;21.55;;;2.50;99.90;;;;;;5094501;28;20028;-67
2021/12/29 07:39:16;;;;;;;40.83;21.77;;;2.50;99.90;;;;;;5077136;28;20028;-68
2021/12/29 07:41:42;;;;;;;38.13;19.65;;;2.50;99.90;;;;;;5094823;28;20024;-68
2021/12/29 07:44:11;;;;;;;37.97;20.40;;;2.60;99.90;;;;;;5094371;28;20036;-68
2021/12/29 07:46:37;;;;;;;37.80;21.30;;;2.60;99.90;;;;;;5095013;28;20032;-68
2021/12/29 07:49:03;;;;;;;35.42;21.33;;;2.60;99.90;;;;;;5094317;28;20473;-68
2021/12/29 07:51:29;;;;;;;35.72;20.60;;;2.60;99.90;;;;;;5094962;28;20306;-68
2021/12/29 07:53:55;;;;;;;38.47;21.50;;;2.70;99.90;;;;;;5093365;28;20127;-68
2021/12/29 07:56:22;;;;;;;37.45;21.90;;;2.70;99.90;;;;;;5095194;28;20036;-68
2021/12/29 07:58:48;;;;;;;36.05;19.88;;;2.70;99.90;;;;;;5093999;28;20036;-68
2021/12/29 08:01:14;;;;;;;38.75;21.45;;;2.70;99.90;;;;;;5094543;28;20480;-68
2021/12/29 08:03:40;;;;;;;37.28;21.60;;;2.70;99.90;;;;;;5094469;28;20048;-67
2021/12/29 08:06:06;;;;;;;35.67;21.02;;;2.70;99.90;;;;;;5093866;28;20024;-67
2021/12/29 08:08:31;;;;;;;37.97;21.23;;;2.80;99.90;;;;;;5094533;28;20397;-68
2021/12/29 08:10:57;;;;;;;38.97;22.20;;;2.80;99.90;;;;;;5093851;28;20024;-67
2021/12/29 08:13:23;;;;;;;40.42;23.08;;;2.80;99.90;;;;;;5093273;28;20028;-67
2021/12/29 08:15:48;;;;;;;41.60;22.17;;;2.80;99.90;;;;;;5075545;28;20377;-68
2021/12/29 08:18:14;;;;;;;41.40;21.23;;;2.80;99.90;;;;;;5094269;28;20475;-68
2021/12/29 08:20:40;;;;;;;35.10;20.40;;;2.80;99.90;;;;;;5094356;28;20375;-67
2021/12/29 08:23:08;;;;;;;40.67;22.35;;;2.90;99.90;;;;;;5093595;28;20071;-67
2021/12/29 08:25:35;;;;;;;41.38;21.77;;;2.90;99.90;;;;;;5093985;28;20380;-67
2021/12/29 08:28:01;;;;;;;38.30;21.73;;;3.00;99.90;;;;;;5093206;28;20036;-68
2021/12/29 08:30:27;;;;;;;39.53;21.85;;;3.00;99.90;;;;;;5093660;28;20396;-67
2021/12/29 08:32:53;;;;;;;38.67;21.17;;;3.00;99.90;;;;;;5093378;28;20092;-67
2021/12/29 08:35:19;;;;;;;38.47;20.92;;;3.00;99.90;;;;;;5075966;28;20523;-68
2021/12/29 08:37:45;;;;;;;38.55;20.58;;;3.00;99.90;;;;;;5093829;28;20047;-68
2021/12/29 08:40:12;;;;;;;37.10;21.25;;;3.00;99.90;;;;;;5093008;28;20066;-67
2021/12/29 08:42:38;;;;;;;39.45;21.80;;;3.10;99.90;;;;;;5093891;28;20053;-68
2021/12/29 08:45:07;;;;;;;36.15;21.77;;;3.10;99.90;;;;;;5093172;28;20460;-67
2021/12/29 08:47:33;;;;;;;37.42;22.02;;;3.10;99.90;;;;;;5093480;28;20113;-67
2021/12/29 08:49:59;;;;;;;36.38;21.77;;;3.20;99.90;;;;;;5092515;28;20031;-68
2021/12/29 08:52:25;;;;;;;38.05;21.00;;;3.20;99.90;;;;;;5093790;28;20024;-68
2021/12/29 08:54:51;;;;;;;39.80;22.63;;;3.20;99.90;;;;;;5093052;28;20545;-68
2021/12/29 08:57:16;;;;;;;37.97;21.58;;;3.20;99.90;;;;;;5093102;28;20067;-68
2021/12/29 08:59:42;;;;;;;35.85;21.33;;;3.30;99.90;;;;;;5075491;28;20047;-67
2021/12/29 09:02:08;;;;;;;41.80;23.40;;;3.30;99.90;;;;;;5093092;28;20432;-68
2021/12/29 09:04:34;;;;;;;38.17;22.35;;;3.30;99.90;;;;;;5093572;28;20409;-67
2021/12/29 09:07:00;;;;;;;37.53;21.30;;;3.30;99.90;;;;;;5092655;28;20043;-68
2021/12/29 09:09:26;;;;;;;37.75;22.80;;;3.40;99.90;;;;;;5093341;28;20024;-67
2021/12/29 09:11:53;;;;;;;35.10;22.58;;;3.50;99.90;;;;;;5092930;28;20028;-68
2021/12/29 09:14:19;;;;;;;34.75;21.65;;;3.60;99.90;;;;;;5093439;28;20028;-68
2021/12/29 09:16:45;;;;;;;38.28;22.13;;;3.70;99.90;;;;;;5093158;28;20046;-68
2021/12/29 09:19:13;;;;;;;36.03;21.35;;;3.70;99.90;;;;;;5074480;28;20060;-67
2021/12/29 09:21:43;;;;;;;36.15;21.27;;;3.80;99.90;;;;;;5092832;28;20028;-67
2021/12/29 09:24:09;;;;;;;35.83;23.50;;;3.80;99.90;;;;;;5092038;28;20032;-68
2021/12/29 09:26:54;;;;;;;32.60;20.45;;;3.90;99.90;;;;;;5092986;28;20377;-68
2021/12/29 09:29:20;;;;;;;35.33;22.95;;;4.00;99.90;;;;;;5074644;28;20127;-68
2021/12/29 09:31:46;;;;;;;39.08;24.42;;;4.00;99.90;;;;;;5092750;28;20181;-68
2021/12/29 09:34:11;;;;;;;38.42;23.40;;;4.00;99.90;;;;;;5092183;28;20058;-67
2021/12/29 09:36:37;;;;;;;37.17;22.85;;;4.10;99.90;;;;;;5092642;28;20536;-67
2021/12/29 09:39:03;;;;;;;36.70;22.45;;;4.20;99.90;;;;;;5073448;28;20024;-67
2021/12/29 09:41:31;;;;;;;34.45;22.42;;;4.20;99.90;;;;;;5092616;28;20051;-68
2021/12/29 09:43:57;;;;;;;34.85;21.52;;;4.20;99.90;;;;;;5091998;28;20035;-68
2021/12/29 09:46:23;;;;;;;33.65;21.45;;;4.30;99.90;;;;;;5092300;28;20175;-67
2021/12/29 09:48:51;;;;;;;33.83;20.25;;;4.40;99.90;;;;;;5092249;28;20468;-68
2021/12/29 09:51:18;;;;;;;35.28;20.45;;;4.40;99.90;;;;;;5091989;28;20362;-68
2021/12/29 09:53:45;;;;;;;36.08;23.13;;;4.50;99.90;;;;;;5091895;28;20032;-67
2021/12/29 09:56:11;;;;;;;35.42;21.65;;;4.50;99.90;;;;;;5091531;28;20115;-68
2021/12/29 09:58:39;;;;;;;35.55;22.13;;;4.50;99.90;;;;;;5092412;28;20032;-68
2021/12/29 10:01:06;;;;;;;36.92;22.05;;;4.60;99.90;;;;;;5091800;28;20478;-67
2021/12/29 10:03:34;;;;;;;35.20;21.40;;;4.70;99.90;;;;;;5092339;28;20051;-68
2021/12/29 10:06:03;;;;;;;30.95;20.88;;;4.70;99.90;;;;;;5091530;28;20032;-67
2021/12/29 10:09:08;;;;;;;36.92;22.60;;;4.80;99.90;;;;;;5092084;28;20020;-66
2021/12/29 10:11:36;;;;;;;36.90;20.73;;;4.80;99.90;;;;;;5077737;28;20066;-67
2021/12/29 10:14:09;;;;;;;32.10;22.02;;;4.90;99.90;;;;;;5091459;28;20036;-70
2021/12/29 10:16:36;;;;;;;32.15;21.10;;;5.00;99.90;;;;;;5091977;28;20059;-67
2021/12/29 10:19:06;;;;;;;35.95;21.90;;;5.10;99.90;;;;;;5073270;28;20028;-67
2021/12/29 10:21:33;;;;;;;31.60;20.50;;;5.20;99.90;;;;;;5091900;28;20036;-67
2021/12/29 10:24:01;;;;;;;28.33;20.08;;;5.30;99.90;;;;;;5091176;28;20031;-67
2021/12/29 10:26:30;;;;;;;28.85;20.05;;;5.40;99.90;;;;;;5091723;28;20036;-67
2021/12/29 10:29:03;;;;;;;30.40;21.38;;;5.50;99.90;;;;;;5091775;28;20060;-67
2021/12/29 10:31:37;;;;;;;31.48;21.30;;;5.50;99.90;;;;;;5092245;28;20410;-67
2021/12/29 10:34:06;;;;;;;33.85;21.05;;;5.50;99.90;;;;;;5091017;28;20055;-67
2021/12/29 10:36:41;;;;;;;35.20;22.83;;;5.60;99.90;;;;;;5093275;28;20024;-67
2021/12/29 10:39:10;;;;;;;33.20;22.90;;;5.60;99.90;;;;;;5095356;28;20111;-67
2021/12/29 10:41:55;;;;;;;35.78;23.85;;;5.60;99.90;;;;;;5095878;28;20028;-67
2021/12/29 10:44:31;;;;;;;31.25;21.83;;;5.60;99.90;;;;;;5095242;28;20465;-68
2021/12/29 10:46:58;;;;;;;29.40;20.50;;;5.60;99.90;;;;;;5095999;28;20032;-67
2021/12/29 10:49:26;;;;;;;29.13;21.13;;;5.60;99.90;;;;;;5076756;28;20422;-68
2021/12/29 10:51:54;;;;;;;31.75;21.80;;;5.70;99.90;;;;;;5077943;28;20031;-67
2021/12/29 10:54:24;;;;;;;32.55;21.25;;;5.80;99.90;;;;;;5094974;28;20059;-68
2021/12/29 10:57:12;;;;;;;30.77;22.00;;;5.80;99.90;;;;;;5095517;28;20032;-67
2021/12/29 10:59:41;;;;;;;34.08;22.20;;;5.90;99.90;;;;;;5095662;28;20077;-67
2021/12/29 11:02:10;;;;;;;31.38;21.83;;;6.00;99.90;;;;;;5094920;28;20032;-66
2021/12/29 11:04:36;;;;;;;32.70;21.77;;;6.00;99.90;;;;;;5095673;28;20032;-67
2021/12/29 11:07:04;;;;;;;26.38;19.92;;;6.00;99.90;;;;;;5094919;28;20032;-67
2021/12/29 11:09:34;;;;;;;31.17;21.40;;;6.10;99.90;;;;;;5095387;28;20493;-67
2021/12/29 11:12:08;;;;;;;29.75;18.98;;;6.10;99.90;;;;;;5095392;28;20051;-68
2021/12/29 11:14:37;;;;;;;30.48;19.63;;;6.20;99.90;;;;;;5095088;28;20030;-68
2021/12/29 11:17:19;;;;;;;25.25;17.05;;;6.20;99.90;;;;;;5094606;28;20028;-67
2021/12/29 11:19:53;;;;;;;14.32;10.90;;;6.30;99.90;;;;;;5095377;28;20024;-67
2021/12/29 11:22:23;;;;;;;6.97;4.25;;;6.40;99.90;;;;;;5094496;28;20082;-68
2021/12/29 11:24:58;;;;;;;3.03;2.10;;;6.50;99.90;;;;;;5095130;28;20119;-67
2021/12/29 11:27:26;;;;;;;2.03;1.40;;;6.70;99.90;;;;;;5094252;28;20114;-68
2021/12/29 11:30:03;;;;;;;2.05;1.40;;;6.90;99.90;;;;;;5095101;28;20128;-68
2021/12/29 11:32:42;;;;;;;3.08;1.83;;;7.00;99.90;;;;;;5095328;28;20141;-67
2021/12/29 11:35:18;;;;;;;3.53;1.60;;;7.20;99.90;;;;;;5094408;28;20363;-68
2021/12/29 11:37:48;;;;;;;2.67;1.50;;;7.30;99.90;;;;;;5094961;28;20025;-67
2021/12/29 11:40:20;;;;;;;1.98;1.20;;;7.50;99.90;;;;;;5093949;28;20074;-67
2021/12/29 11:42:47;;;;;;;2.30;1.33;;;7.60;99.90;;;;;;5094844;28;20111;-67
2021/12/29 11:45:13;;;;;;;1.45;1.00;;;7.70;99.90;;;;;;5094178;28;20052;-67
2021/12/29 11:47:40;;;;;;;2.08;1.40;;;7.80;99.90;;;;;;5094552;28;20111;-67
2021/12/29 11:50:08;;;;;;;2.08;1.17;;;7.80;99.90;;;;;;5093814;28;20388;-68
2021/12/29 11:52:45;;;;;;;1.52;1.13;;;7.90;99.90;;;;;;5094552;28;20028;-68
2021/12/29 11:55:21;;;;;;;2.78;1.55;;;8.00;99.90;;;;;;5093554;28;20075;-68
2021/12/29 11:57:48;;;;;;;2.53;1.30;;;8.00;99.90;;;;;;5093969;28;20383;-68
2021/12/29 12:00:24;;;;;;;1.42;1.15;;;8.00;99.90;;;;;;5093722;28;20032;-68
2021/12/29 12:02:52;;;;;;;2.28;1.30;;;8.10;99.90;;;;;;5094347;28;20074;-68
2021/12/29 12:05:22;;;;;;;1.88;1.30;;;8.10;99.90;;;;;;5093685;28;20024;-68
2021/12/29 12:07:49;;;;;;;3.80;1.53;;;8.00;99.90;;;;;;5094456;28;20366;-67
2021/12/29 12:10:35;;;;;;;3.10;1.40;;;8.00;99.90;;;;;;5093470;28;20024;-67
2021/12/29 12:13:04;;;;;;;3.20;1.60;;;8.00;99.90;;;;;;5094154;28;20028;-67
2021/12/29 12:15:37;;;;;;;2.22;1.60;;;8.00;99.90;;;;;;5093676;28;20060;-67
2021/12/29 12:18:07;;;;;;;5.43;1.83;;;8.00;99.90;;;;;;5094122;28;20042;-67
2021/12/29 12:20:48;;;;;;;3.65;1.90;;;8.00;99.90;;;;;;5093708;28;20028;-67
2021/12/29 12:23:25;;;;;;;2.70;1.65;;;7.90;99.90;;;;;;5093282;28;20026;-68
2021/12/29 12:25:51;;;;;;;4.05;2.28;;;7.90;99.90;;;;;;5093862;28;20035;-67
2021/12/29 12:28:21;;;;;;;2.28;1.80;;;7.90;99.90;;;;;;5093422;28;20035;-67
2021/12/29 12:30:51;;;;;;;4.20;1.92;;;7.90;99.90;;;;;;5094179;28;20241;-67
2021/12/29 12:33:26;;;;;;;3.28;1.65;;;7.90;99.90;;;;;;5093689;28;20103;-67
2021/12/29 12:35:54;;;;;;;3.85;1.92;;;7.80;99.90;;;;;;5093663;28;20499;-67
2021/12/29 12:38:34;;;;;;;3.08;2.00;;;7.80;99.90;;;;;;5075003;28;20108;-66
2021/12/29 12:41:09;;;;;;;3.95;1.80;;;7.80;99.90;;;;;;5093889;28;20036;-67
2021/12/29 12:44:00;;;;;;;2.72;1.80;;;7.80;99.90;;;;;;5093676;28;20048;-66
2021/12/29 12:46:47;;;;;;;2.25;1.88;;;7.80;99.90;;;;;;5093092;28;20103;-68
2021/12/29 12:49:30;;;;;;;4.68;2.17;;;7.70;99.90;;;;;;5092308;28;20442;-67
2021/12/29 12:52:03;;;;;;;3.00;2.08;;;7.70;99.90;;;;;;5093509;28;20024;-67
2021/12/29 12:54:34;;;;;;;2.78;2.00;;;7.60;99.90;;;;;;5093064;28;20476;-67